Terminal Aerodrome Forecast
Issued by NWS

Current Version | Previous Version | Graphics & Text | Print | Product List | Glossary On
Versions: 1 2 3 4 5 6 7 8 9 10 11 12 13 14 15 16 17 18 19 20 21
000
FTUS41 KPBZ 181100
TAFMGW
TAF
KMGW 181139Z 1812/1912 VRB03KT 2SM BR BKN090
     FM181400 VRB04KT P6SM OVC050
     FM181600 04004KT P6SM VCSH BKN040
     FM190000 VRB02KT 4SM BR BKN100=

USA.gov is the U.S. government's official web portal to all federal, state and local government web resources and services.